Time;durP1;ratioP1;P1;durP2;ratioP2;P2;SDS_P1;SDS_P2;PMS_P1;PMS_P2;Temp;Humidity;BMP_temperature;BMP_pressure;BME280_temperature;BME280_humidity;BME280_pressure;Samples;Min_cycle;Max_cycle;Signal;HPM_P1;HPM_P2
2024/04/09 00:01:51;;;;;;;;;;;;;;;;;;5483460;26;19928;-61
2024/04/09 00:04:17;;;;;;;;;;;;;;;;;;5484893;26;19932;-60
2024/04/09 00:06:43;;;;;;;;;;;;;;;;;;5480680;26;19935;-60
2024/04/09 00:09:11;;;;;;;;;;;;;;;;;;5477235;26;20285;-60
2024/04/09 00:11:37;;;;;;;;;;;;;;;;;;5481634;26;19928;-60
2024/04/09 00:14:04;;;;;;;;;;;;;;;;;;5485122;26;19996;-58
2024/04/09 00:16:33;;;;;;;;;;;;;;;;;;5477774;26;19984;-59
2024/04/09 00:18:59;;;;;;;;;;;;;;;;;;5484647;26;19927;-59
2024/04/09 00:21:25;;;;;;;;;;;;;;;;;;5481214;26;19964;-61
2024/04/09 00:23:50;;;;;;;;;;;;;;;;;;5477290;26;20004;-60
2024/04/09 00:26:17;;;;;;;;;;;;;;;;;;5476590;26;19997;-60
2024/04/09 00:28:43;;;;;;;;;;;;;;;;;;5475077;26;20017;-60
2024/04/09 00:31:08;;;;;;;;;;;;;;;;;;5483230;26;19935;-61
2024/04/09 00:33:34;;;;;;;;;;;;;;;;;;5490157;26;19935;-60
2024/04/09 00:36:01;;;;;;;;;;;;;;;;;;5483167;26;19936;-60
2024/04/09 00:38:27;;;;;;;;;;;;;;;;;;5484200;26;19927;-59
2024/04/09 00:40:53;;;;;;;;;;;;;;;;;;5479673;26;19928;-59
2024/04/09 00:43:19;;;;;;;;;;;;;;;;;;5484097;26;19928;-59
2024/04/09 00:45:45;;;;;;;;;;;;;;;;;;5484598;26;19928;-59
2024/04/09 00:48:11;;;;;;;;;;;;;;;;;;5481241;26;19935;-59
2024/04/09 00:50:41;;;;;;;;;;;;;;;;;;5478085;26;19947;-60
2024/04/09 00:53:07;;;;;;;;;;;;;;;;;;5476674;26;20301;-61
2024/04/09 00:55:33;;;;;;;;;;;;;;;;;;5480075;26;19940;-60
2024/04/09 00:57:59;;;;;;;;;;;;;;;;;;5475141;26;19947;-58
2024/04/09 01:00:25;;;;;;;;;;;;;;;;;;5478486;26;20051;-58
2024/04/09 01:02:53;;;;;;;;;;;;;;;;;;5481095;26;19940;-60
2024/04/09 01:05:19;;;;;;;;;;;;;;;;;;5483346;26;20012;-60
2024/04/09 01:07:45;;;;;;;;;;;;;;;;;;5479899;26;19928;-61
2024/04/09 01:10:11;;;;;;;;;;;;;;;;;;5486233;26;19983;-61
2024/04/09 01:12:37;;;;;;;;;;;;;;;;;;5481568;26;19940;-60
2024/04/09 01:15:03;;;;;;;;;;;;;;;;;;5480583;26;19935;-60
2024/04/09 01:17:29;;;;;;;;;;;;;;;;;;5483582;26;19995;-60
2024/04/09 01:19:54;;;;;;;;;;;;;;;;;;5481299;26;19928;-60
2024/04/09 01:22:20;;;;;;;;;;;;;;;;;;5475942;26;19996;-59
2024/04/09 01:24:47;;;;;;;;;;;;;;;;;;5483673;26;19936;-59
2024/04/09 01:27:14;;;;;;;;;;;;;;;;;;5487025;26;19947;-60
2024/04/09 01:29:40;;;;;;;;;;;;;;;;;;5476899;26;20223;-60
2024/04/09 01:32:06;;;;;;;;;;;;;;;;;;5482269;26;20258;-60
2024/04/09 01:34:35;;;;;;;;;;;;;;;;;;5467416;26;19942;-60
2024/04/09 01:37:01;;;;;;;;;;;;;;;;;;5483059;26;20409;-60
2024/04/09 01:39:27;;;;;;;;;;;;;;;;;;5487668;26;19943;-59
2024/04/09 01:41:53;;;;;;;;;;;;;;;;;;5475281;26;19936;-61
2024/04/09 01:44:19;;;;;;;;;;;;;;;;;;5487903;26;19939;-60
2024/04/09 01:46:47;;;;;;;;;;;;;;;;;;5476977;26;19940;-59
2024/04/09 01:49:13;;;;;;;;;;;;;;;;;;5472469;26;20508;-60
2024/04/09 01:51:40;;;;;;;;;;;;;;;;;;5481771;26;19943;-60
2024/04/09 01:54:06;;;;;;;;;;;;;;;;;;5487128;26;19939;-58
2024/04/09 01:56:32;;;;;;;;;;;;;;;;;;5481152;26;19928;-60
2024/04/09 01:58:57;;;;;;;;;;;;;;;;;;5468558;26;19936;-60
2024/04/09 02:01:23;;;;;;;;;;;;;;;;;;5483254;26;20239;-61
2024/04/09 02:03:49;;;;;;;;;;;;;;;;;;5483125;26;19928;-59
2024/04/09 02:06:16;;;;;;;;;;;;;;;;;;5482761;26;19928;-60
2024/04/09 02:08:42;;;;;;;;;;;;;;;;;;5470207;26;19927;-60
2024/04/09 02:11:12;;;;;;;;;;;;;;;;;;5491621;26;19995;-60
2024/04/09 02:13:38;;;;;;;;;;;;;;;;;;5483346;26;20274;-60
2024/04/09 02:16:08;;;;;;;;;;;;;;;;;;5476935;26;20039;-61
2024/04/09 02:18:35;;;;;;;;;;;;;;;;;;5477736;26;19928;-60
2024/04/09 02:21:01;;;;;;;;;;;;;;;;;;5476930;26;19939;-61
2024/04/09 02:23:27;;;;;;;;;;;;;;;;;;5478454;26;19947;-61
2024/04/09 02:25:53;;;;;;;;;;;;;;;;;;5470976;26;20080;-58
2024/04/09 02:28:19;;;;;;;;;;;;;;;;;;5476758;26;20017;-61
2024/04/09 02:30:45;;;;;;;;;;;;;;;;;;5478749;26;19944;-59
2024/04/09 02:33:13;;;;;;;;;;;;;;;;;;5478945;26;19927;-58
2024/04/09 02:35:42;;;;;;;;;;;;;;;;;;5477989;26;19928;-59
2024/04/09 02:38:08;;;;;;;;;;;;;;;;;;5478864;26;19936;-59
2024/04/09 02:40:34;;;;;;;;;;;;;;;;;;5472947;26;19932;-60
2024/04/09 02:43:03;;;;;;;;;;;;;;;;;;5478111;26;19928;-59
2024/04/09 02:45:29;;;;;;;;;;;;;;;;;;5464047;26;19997;-60
2024/04/09 02:47:54;;;;;;;;;;;;;;;;;;5479916;26;19940;-60
2024/04/09 02:50:20;;;;;;;;;;;;;;;;;;5473077;26;19928;-60
2024/04/09 02:52:49;;;;;;;;;;;;;;;;;;5480156;26;19978;-60
2024/04/09 02:55:15;;;;;;;;;;;;;;;;;;5478193;26;19938;-60
2024/04/09 02:57:42;;;;;;;;;;;;;;;;;;5484367;26;19935;-60
2024/04/09 03:00:15;;;;;;;;;;;;;;;;;;5474390;26;20383;-59
2024/04/09 03:02:41;;;;;;;;;;;;;;;;;;5482111;26;19928;-60
2024/04/09 03:05:07;;;;;;;;;;;;;;;;;;5482102;26;19928;-59
2024/04/09 03:07:33;;;;;;;;;;;;;;;;;;5482171;26;19930;-60
2024/04/09 03:09:59;;;;;;;;;;;;;;;;;;5483650;26;20005;-60
2024/04/09 03:12:25;;;;;;;;;;;;;;;;;;5486165;26;20402;-59
2024/04/09 03:14:51;;;;;;;;;;;;;;;;;;5479413;26;19928;-59
2024/04/09 03:17:17;;;;;;;;;;;;;;;;;;5483233;26;19935;-59
2024/04/09 03:19:43;;;;;;;;;;;;;;;;;;5468762;26;20308;-58
2024/04/09 03:22:08;;;;;;;;;;;;;;;;;;5487666;26;19927;-60
2024/04/09 03:24:35;;;;;;;;;;;;;;;;;;5479659;26;20004;-59
2024/04/09 03:27:01;;;;;;;;;;;;;;;;;;5477254;26;20286;-60
2024/04/09 03:29:28;;;;;;;;;;;;;;;;;;5474200;26;19936;-60
2024/04/09 03:31:54;;;;;;;;;;;;;;;;;;5472738;26;19936;-60
2024/04/09 03:34:20;;;;;;;;;;;;;;;;;;5484762;26;19928;-61
2024/04/09 03:36:46;;;;;;;;;;;;;;;;;;5484502;26;19947;-59
2024/04/09 03:39:12;;;;;;;;;;;;;;;;;;5484661;26;20431;-58
2024/04/09 03:41:38;;;;;;;;;;;;;;;;;;5480763;26;19932;-60
2024/04/09 03:44:04;;;;;;;;;;;;;;;;;;5484579;26;19936;-59
2024/04/09 03:46:30;;;;;;;;;;;;;;;;;;5481554;26;19938;-59
2024/04/09 03:48:56;;;;;;;;;;;;;;;;;;5483628;26;19928;-61
2024/04/09 03:51:22;;;;;;;;;;;;;;;;;;5473758;26;19928;-59
2024/04/09 03:53:47;;;;;;;;;;;;;;;;;;5482048;26;20627;-60
2024/04/09 03:56:13;;;;;;;;;;;;;;;;;;5487187;26;19951;-60
2024/04/09 03:58:39;;;;;;;;;;;;;;;;;;5476808;26;19932;-60
2024/04/09 04:01:05;;;;;;;;;;;;;;;;;;5475539;26;19928;-59
2024/04/09 04:03:31;;;;;;;;;;;;;;;;;;5481100;26;19928;-59
2024/04/09 04:05:57;;;;;;;;;;;;;;;;;;5486135;26;19928;-60
2024/04/09 04:08:23;;;;;;;;;;;;;;;;;;5484538;26;20377;-60
2024/04/09 04:10:49;;;;;;;;;;;;;;;;;;5479109;26;20019;-60
2024/04/09 04:13:15;;;;;;;;;;;;;;;;;;5484652;26;19934;-60
2024/04/09 04:15:41;;;;;;;;;;;;;;;;;;5473385;26;19940;-60
2024/04/09 04:18:06;;;;;;;;;;;;;;;;;;5483345;26;20266;-59
2024/04/09 04:20:32;;;;;;;;;;;;;;;;;;5484918;26;19940;-60
2024/04/09 04:22:58;;;;;;;;;;;;;;;;;;5480979;26;19966;-60
2024/04/09 04:25:24;;;;;;;;;;;;;;;;;;5479830;26;19960;-59
2024/04/09 04:27:50;;;;;;;;;;;;;;;;;;5477665;26;19934;-61
2024/04/09 04:30:16;;;;;;;;;;;;;;;;;;5468422;26;20314;-59
2024/04/09 04:32:42;;;;;;;;;;;;;;;;;;5485839;26;20049;-60
2024/04/09 04:35:07;;;;;;;;;;;;;;;;;;5480638;26;20384;-60
2024/04/09 04:37:33;;;;;;;;;;;;;;;;;;5478950;26;20567;-60
2024/04/09 04:39:59;;;;;;;;;;;;;;;;;;5479177;26;19935;-58
2024/04/09 04:42:25;;;;;;;;;;;;;;;;;;5478966;26;20374;-59
2024/04/09 04:44:51;;;;;;;;;;;;;;;;;;5476470;26;19961;-58
2024/04/09 04:47:17;;;;;;;;;;;;;;;;;;5475321;26;19932;-60
2024/04/09 04:49:43;;;;;;;;;;;;;;;;;;5473625;26;19928;-59
2024/04/09 04:52:09;;;;;;;;;;;;;;;;;;5469710;26;19936;-59
2024/04/09 04:54:35;;;;;;;;;;;;;;;;;;5479027;26;19936;-59
2024/04/09 04:57:01;;;;;;;;;;;;;;;;;;5472814;26;20686;-61
2024/04/09 04:59:27;;;;;;;;;;;;;;;;;;5477582;26;19961;-60
2024/04/09 05:01:53;;;;;;;;;;;;;;;;;;5476099;26;19928;-60
2024/04/09 05:04:19;;;;;;;;;;;;;;;;;;5484026;26;19993;-60
2024/04/09 05:06:45;;;;;;;;;;;;;;;;;;5476355;26;19935;-59
2024/04/09 05:09:11;;;;;;;;;;;;;;;;;;5484143;26;19935;-59
2024/04/09 05:11:39;;;;;;;;;;;;;;;;;;5482624;26;20108;-59
2024/04/09 05:14:05;;;;;;;;;;;;;;;;;;5478514;26;19928;-59
2024/04/09 05:16:31;;;;;;;;;;;;;;;;;;5473725;26;19962;-59
2024/04/09 05:18:56;;;;;;;;;;;;;;;;;;5476576;26;19928;-59
2024/04/09 05:21:22;;;;;;;;;;;;;;;;;;5478238;26;20083;-60
2024/04/09 05:23:48;;;;;;;;;;;;;;;;;;5485278;26;19940;-59
2024/04/09 05:26:14;;;;;;;;;;;;;;;;;;5484349;26;19936;-59
2024/04/09 05:28:40;;;;;;;;;;;;;;;;;;5478361;26;19928;-58
2024/04/09 05:31:06;;;;;;;;;;;;;;;;;;5486009;26;19928;-59
2024/04/09 05:33:32;;;;;;;;;;;;;;;;;;5480229;26;19936;-60
2024/04/09 05:35:57;;;;;;;;;;;;;;;;;;5476141;26;19928;-60
2024/04/09 05:38:23;;;;;;;;;;;;;;;;;;5474839;26;20263;-59
2024/04/09 05:40:49;;;;;;;;;;;;;;;;;;5471067;26;19948;-59
2024/04/09 05:43:18;;;;;;;;;;;;;;;;;;5480633;26;20145;-57
2024/04/09 05:45:44;;;;;;;;;;;;;;;;;;5473708;26;19937;-59
2024/04/09 05:48:10;;;;;;;;;;;;;;;;;;5482075;26;19928;-59
2024/04/09 05:50:36;;;;;;;;;;;;;;;;;;5475033;26;20255;-59
2024/04/09 05:53:02;;;;;;;;;;;;;;;;;;5484246;26;19935;-60
2024/04/09 05:55:28;;;;;;;;;;;;;;;;;;5483015;26;20022;-60
2024/04/09 05:57:54;;;;;;;;;;;;;;;;;;5483561;26;19936;-58
2024/04/09 06:00:21;;;;;;;;;;;;;;;;;;5487003;26;20279;-58
2024/04/09 06:02:47;;;;;;;;;;;;;;;;;;5445965;26;19935;-59
2024/04/09 06:05:15;;;;;;;;;;;;;;;;;;5481672;26;20262;-61
2024/04/09 06:07:41;;;;;;;;;;;;;;;;;;5483887;26;19956;-60
2024/04/09 06:10:07;;;;;;;;;;;;;;;;;;5469915;26;19929;-59
2024/04/09 06:12:33;;;;;;;;;;;;;;;;;;5480999;26;19936;-60
2024/04/09 06:14:59;;;;;;;;;;;;;;;;;;5479519;26;19940;-59
2024/04/09 06:17:25;;;;;;;;;;;;;;;;;;5479488;26;19928;-59
2024/04/09 06:19:53;;;;;;;;;;;;;;;;;;5488724;26;19928;-60
2024/04/09 06:22:19;;;;;;;;;;;;;;;;;;5484898;26;19963;-59
2024/04/09 06:24:45;;;;;;;;;;;;;;;;;;5477577;26;19932;-59
2024/04/09 06:27:11;;;;;;;;;;;;;;;;;;5484482;26;19935;-60
2024/04/09 06:29:37;;;;;;;;;;;;;;;;;;5484645;26;21751;-57
2024/04/09 06:32:04;;;;;;;;;;;;;;;;;;5484995;26;19932;-57
2024/04/09 06:34:30;;;;;;;;;;;;;;;;;;5479640;26;19935;-58
2024/04/09 06:36:56;;;;;;;;;;;;;;;;;;5475926;26;20269;-58
2024/04/09 06:39:22;;;;;;;;;;;;;;;;;;5478566;26;19946;-58
2024/04/09 06:41:47;;;;;;;;;;;;;;;;;;5489652;26;19936;-58
2024/04/09 06:44:14;;;;;;;;;;;;;;;;;;5488088;26;19939;-58
2024/04/09 06:46:40;;;;;;;;;;;;;;;;;;5477061;26;19936;-59
2024/04/09 06:49:06;;;;;;;;;;;;;;;;;;5454236;26;19999;-58
2024/04/09 06:51:32;;;;;;;;;;;;;;;;;;5478881;26;20292;-58
2024/04/09 06:53:58;;;;;;;;;;;;;;;;;;5478687;26;19968;-58
2024/04/09 06:56:24;;;;;;;;;;;;;;;;;;5474899;26;20378;-58
2024/04/09 06:58:49;;;;;;;;;;;;;;;;;;5482049;26;19928;-58
2024/04/09 07:01:15;;;;;;;;;;;;;;;;;;5480636;26;19936;-53
2024/04/09 07:03:41;;;;;;;;;;;;;;;;;;5475895;26;19928;-52
2024/04/09 07:06:07;;;;;;;;;;;;;;;;;;5480458;26;19947;-53
2024/04/09 07:08:33;;;;;;;;;;;;;;;;;;5485049;26;19935;-53
2024/04/09 07:11:02;;;;;;;;;;;;;;;;;;5453627;26;20365;-57
2024/04/09 07:13:28;;;;;;;;;;;;;;;;;;5479450;26;20618;-55
2024/04/09 07:15:55;;;;;;;;;;;;;;;;;;5477081;26;19936;-56
2024/04/09 07:18:21;;;;;;;;;;;;;;;;;;5477857;26;19975;-61
2024/04/09 07:20:49;;;;;;;;;;;;;;;;;;5480079;26;20287;-59
2024/04/09 07:23:14;;;;;;;;;;;;;;;;;;5477812;26;19991;-58
2024/04/09 07:25:40;;;;;;;;;;;;;;;;;;5482317;26;19993;-57
2024/04/09 07:28:06;;;;;;;;;;;;;;;;;;5482215;26;19939;-58
2024/04/09 07:30:32;;;;;;;;;;;;;;;;;;5483922;26;19936;-56
2024/04/09 07:32:58;;;;;;;;;;;;;;;;;;5472042;26;19928;-57
2024/04/09 07:35:24;;;;;;;;;;;;;;;;;;5479710;26;19936;-57
2024/04/09 07:37:50;;;;;;;;;;;;;;;;;;5473437;26;20096;-56
2024/04/09 07:40:15;;;;;;;;;;;;;;;;;;5476635;26;19935;-57
2024/04/09 07:42:41;;;;;;;;;;;;;;;;;;5472820;26;19928;-59
2024/04/09 07:45:09;;;;;;;;;;;;;;;;;;5480140;26;20373;-56
2024/04/09 07:47:35;;;;;;;;;;;;;;;;;;5478499;26;19960;-58
2024/04/09 07:50:08;;;;;;;;;;;;;;;;;;5478279;26;20579;-56
2024/04/09 07:52:36;;;;;;;;;;;;;;;;;;5474673;26;20330;-54
2024/04/09 07:55:02;;;;;;;;;;;;;;;;;;5480833;26;19939;-56
2024/04/09 07:57:28;;;;;;;;;;;;;;;;;;5474207;26;19932;-57
2024/04/09 07:59:54;;;;;;;;;;;;;;;;;;5482048;26;19928;-59
2024/04/09 08:02:20;;;;;;;;;;;;;;;;;;5470204;26;20266;-59
2024/04/09 08:04:46;;;;;;;;;;;;;;;;;;5480510;26;19932;-57
2024/04/09 08:07:12;;;;;;;;;;;;;;;;;;5478319;26;20380;-56
2024/04/09 08:20:15;;;;;;;;;;;;;;;;;;5588614;21;20018;-58
2024/04/09 08:22:41;;;;;;;;;;;;;;;;;;5290857;26;20450;-57
2024/04/09 08:25:10;;;;;;;;;;;;;;;;;;5320404;26;19930;-57
2024/04/09 08:27:41;;;;;;;;;;;;;;;;;;5313795;26;19937;-58
2024/04/09 08:30:07;;;;;;;;;;;;;;;;;;5307834;26;19938;-56
2024/04/09 08:32:34;;;;;;;;;;;;;;;;;;5307709;26;19945;-55
2024/04/09 08:35:00;;;;;;;;;;;;;;;;;;5307252;26;20022;-57
2024/04/09 08:37:25;;;;;;;;;;;;;;;;;;5308122;26;19931;-58
2024/04/09 08:39:52;;;;;;;;;;;;;;;;;;5313228;26;19930;-58
2024/04/09 08:42:17;;;;;;;;;;;;;;;;;;5315241;26;19935;-59
2024/04/09 08:44:43;;;;;;;;;;;;;;;;;;5316727;26;19938;-57
2024/04/09 08:47:09;;;;;;;;;;;;;;;;;;5307455;26;19942;-59
2024/04/09 08:49:35;;;;;;;;;;;;;;;;;;5317293;26;19935;-57
2024/04/09 08:52:01;;;;;;;;;;;;;;;;;;5310142;26;19931;-58
2024/04/09 08:54:27;;;;;;;;;;;;;;;;;;5309411;26;19943;-56
2024/04/09 08:56:53;;;;;;;;;;;;;;;;;;5314565;26;20284;-58
2024/04/09 08:59:19;;;;;;;;;;;;;;;;;;5309829;26;19930;-59
2024/04/09 09:01:44;;;;;;;;;;;;;;;;;;5310745;26;19931;-59
2024/04/09 09:04:11;;;;;;;;;;;;;;;;;;5302751;26;19942;-58
2024/04/09 09:06:37;;;;;;;;;;;;;;;;;;5305720;26;19930;-58
2024/04/09 09:09:04;;;;;;;;;;;;;;;;;;5303631;26;19931;-59
2024/04/09 09:11:30;;;;;;;;;;;;;;;;;;5307092;26;19985;-58
2024/04/09 09:13:56;;;;;;;;;;;;;;;;;;5308917;26;19930;-55
2024/04/09 09:16:22;;;;;;;;;;;;;;;;;;5315667;26;20379;-58
2024/04/09 09:18:49;;;;;;;;;;;;;;;;;;5305314;26;19931;-58
2024/04/09 09:21:16;;;;;;;;;;;;;;;;;;5306579;26;19938;-58
2024/04/09 09:23:41;;;;;;;;;;;;;;;;;;5307020;26;19930;-57
2024/04/09 09:26:08;;;;;;;;;;;;;;;;;;5304417;26;19930;-56
2024/04/09 09:28:34;;;;;;;;;;;;;;;;;;5309375;26;19999;-56
2024/04/09 09:31:00;;;;;;;;;;;;;;;;;;5309897;26;19937;-59
2024/04/09 09:33:26;;;;;;;;;;;;;;;;;;5296283;26;19938;-58
2024/04/09 09:35:52;;;;;;;;;;;;;;;;;;5304021;26;20291;-59
2024/04/09 09:38:18;;;;;;;;;;;;;;;;;;5272280;26;19934;-55
2024/04/09 09:40:44;;;;;;;;;;;;;;;;;;5306831;26;20336;-59
2024/04/09 09:43:10;;;;;;;;;;;;;;;;;;5314223;26;20588;-59
2024/04/09 09:45:36;;;;;;;;;;;;;;;;;;5308922;26;19931;-57
2024/04/09 09:48:02;;;;;;;;;;;;;;;;;;5316178;26;20262;-57
2024/04/09 09:50:29;;;;;;;;;;;;;;;;;;5307312;26;19938;-59
2024/04/09 09:52:55;;;;;;;;;;;;;;;;;;5286470;26;19961;-57
2024/04/09 09:55:21;;;;;;;;;;;;;;;;;;5302714;26;19943;-58
2024/04/09 09:57:47;;;;;;;;;;;;;;;;;;5294587;26;19938;-58
2024/04/09 10:00:14;;;;;;;;;;;;;;;;;;5304767;26;19930;-58
2024/04/09 10:02:44;;;;;;;;;;;;;;;;;;5311098;26;19942;-60
2024/04/09 10:05:09;;;;;;;;;;;;;;;;;;5315169;26;19938;-59
2024/04/09 10:07:35;;;;;;;;;;;;;;;;;;5310687;26;19939;-59
2024/04/09 10:10:01;;;;;;;;;;;;;;;;;;5308787;26;19934;-58
2024/04/09 10:12:27;;;;;;;;;;;;;;;;;;5310857;26;19938;-59
2024/04/09 10:14:53;;;;;;;;;;;;;;;;;;5320366;26;19966;-59
2024/04/09 10:17:19;;;;;;;;;;;;;;;;;;5318346;26;19955;-58
2024/04/09 10:19:45;;;;;;;;;;;;;;;;;;5306428;26;20312;-58
2024/04/09 10:22:10;;;;;;;;;;;;;;;;;;5319576;26;19943;-56
2024/04/09 10:24:36;;;;;;;;;;;;;;;;;;5310601;26;19938;-59
2024/04/09 10:27:04;;;;;;;;;;;;;;;;;;5308972;26;19996;-57
2024/04/09 10:29:29;;;;;;;;;;;;;;;;;;5307052;26;19930;-59
2024/04/09 10:31:55;;;;;;;;;;;;;;;;;;5311209;26;20400;-58
2024/04/09 10:34:21;;;;;;;;;;;;;;;;;;5308547;26;19934;-59
2024/04/09 10:36:48;;;;;;;;;;;;;;;;;;5310223;26;19930;-58
2024/04/09 10:39:14;;;;;;;;;;;;;;;;;;5312110;26;19938;-58
2024/04/09 10:41:40;;;;;;;;;;;;;;;;;;5308279;26;20323;-59
2024/04/09 10:44:06;;;;;;;;;;;;;;;;;;5305582;26;19963;-59
2024/04/09 10:46:32;;;;;;;;;;;;;;;;;;5304970;26;21142;-57
2024/04/09 10:48:58;;;;;;;;;;;;;;;;;;5307595;26;20025;-58
2024/04/09 10:51:24;;;;;;;;;;;;;;;;;;5312941;26;19940;-58
2024/04/09 10:53:50;;;;;;;;;;;;;;;;;;5311955;26;19938;-59
2024/04/09 10:56:15;;;;;;;;;;;;;;;;;;5309867;26;19945;-57
2024/04/09 10:58:41;;;;;;;;;;;;;;;;;;5310075;26;19930;-58
2024/04/09 11:01:12;;;;;;;;;;;;;;;;;;5304924;26;20360;-57
2024/04/09 11:03:38;;;;;;;;;;;;;;;;;;5325669;26;20018;-56
2024/04/09 11:06:04;;;;;;;;;;;;;;;;;;5310708;26;20272;-58
2024/04/09 11:08:30;;;;;;;;;;;;;;;;;;5301726;26;19946;-57
2024/04/09 11:10:56;;;;;;;;;;;;;;;;;;5309617;26;19938;-59
2024/04/09 11:13:21;;;;;;;;;;;;;;;;;;5326134;26;20016;-58
2024/04/09 11:15:47;;;;;;;;;;;;;;;;;;5310161;26;19931;-59
2024/04/09 11:18:19;;;;;;;;;;;;;;;;;;5312711;26;19942;-58
2024/04/09 11:20:45;;;;;;;;;;;;;;;;;;5309877;26;20000;-56
2024/04/09 11:23:11;;;;;;;;;;;;;;;;;;5318604;26;20335;-59
2024/04/09 11:25:37;;;;;;;;;;;;;;;;;;5320456;26;19948;-57
2024/04/09 11:28:02;;;;;;;;;;;;;;;;;;5315198;26;19931;-60
2024/04/09 11:30:28;;;;;;;;;;;;;;;;;;5311171;26;19945;-59
2024/04/09 11:32:54;;;;;;;;;;;;;;;;;;5314966;26;19990;-56
2024/04/09 11:35:20;;;;;;;;;;;;;;;;;;5297597;26;19931;-57
2024/04/09 11:37:46;;;;;;;;;;;;;;;;;;5304358;26;19938;-58
2024/04/09 11:40:12;;;;;;;;;;;;;;;;;;5305374;26;20001;-58
2024/04/09 11:42:38;;;;;;;;;;;;;;;;;;5308394;26;19937;-58
2024/04/09 11:45:04;;;;;;;;;;;;;;;;;;5307950;26;19938;-59
2024/04/09 11:47:30;;;;;;;;;;;;;;;;;;5304488;26;19949;-57
2024/04/09 11:49:56;;;;;;;;;;;;;;;;;;5313399;26;19935;-58
2024/04/09 11:52:21;;;;;;;;;;;;;;;;;;5306526;26;19939;-59
2024/04/09 11:54:47;;;;;;;;;;;;;;;;;;5304808;26;19930;-59
2024/04/09 11:57:13;;;;;;;;;;;;;;;;;;5307836;26;19934;-59
2024/04/09 11:59:39;;;;;;;;;;;;;;;;;;5301621;26;19943;-60
2024/04/09 12:02:05;;;;;;;;;;;;;;;;;;5302466;26;19930;-59
2024/04/09 12:04:31;;;;;;;;;;;;;;;;;;5304784;26;19938;-58
2024/04/09 12:06:57;;;;;;;;;;;;;;;;;;5300163;26;19930;-59
2024/04/09 12:09:22;;;;;;;;;;;;;;;;;;5273651;26;20380;-58
2024/04/09 12:11:48;;;;;;;;;;;;;;;;;;5305515;26;19930;-57
2024/04/09 12:14:14;;;;;;;;;;;;;;;;;;5302787;26;19930;-59
2024/04/09 12:16:43;;;;;;;;;;;;;;;;;;5303551;26;19930;-58
2024/04/09 12:19:09;;;;;;;;;;;;;;;;;;5303565;26;19931;-59
2024/04/09 12:21:35;;;;;;;;;;;;;;;;;;5303391;26;20002;-55
2024/04/09 12:24:01;;;;;;;;;;;;;;;;;;5304080;26;19930;-59
2024/04/09 12:26:26;;;;;;;;;;;;;;;;;;5303436;26;20264;-56
2024/04/09 12:28:57;;;;;;;;;;;;;;;;;;5303986;26;19941;-58
2024/04/09 12:31:23;;;;;;;;;;;;;;;;;;5305860;26;20846;-59
2024/04/09 12:33:49;;;;;;;;;;;;;;;;;;5304643;26;19938;-59
2024/04/09 12:36:15;;;;;;;;;;;;;;;;;;5303018;26;20439;-59
2024/04/09 12:38:40;;;;;;;;;;;;;;;;;;5303846;26;19938;-58
2024/04/09 12:41:06;;;;;;;;;;;;;;;;;;5303604;26;19930;-59
2024/04/09 12:43:32;;;;;;;;;;;;;;;;;;5307706;26;19942;-59
2024/04/09 12:45:58;;;;;;;;;;;;;;;;;;5304970;26;20265;-58
2024/04/09 12:48:24;;;;;;;;;;;;;;;;;;5309869;26;20001;-59
2024/04/09 12:50:50;;;;;;;;;;;;;;;;;;5304830;26;19942;-58
2024/04/09 12:53:16;;;;;;;;;;;;;;;;;;5306841;26;20053;-59
2024/04/09 12:55:43;;;;;;;;;;;;;;;;;;5305385;26;20301;-58
2024/04/09 12:58:09;;;;;;;;;;;;;;;;;;5276639;26;19941;-55
2024/04/09 13:00:35;;;;;;;;;;;;;;;;;;5298644;26;19934;-59
2024/04/09 13:03:01;;;;;;;;;;;;;;;;;;5309902;26;19937;-58
2024/04/09 13:05:27;;;;;;;;;;;;;;;;;;5302272;26;22652;-56
2024/04/09 13:07:53;;;;;;;;;;;;;;;;;;5309572;26;20395;-56
2024/04/09 13:10:20;;;;;;;;;;;;;;;;;;5303767;26;19939;-55
2024/04/09 13:12:46;;;;;;;;;;;;;;;;;;5312977;26;19937;-59
2024/04/09 13:15:11;;;;;;;;;;;;;;;;;;5305229;26;19931;-60
2024/04/09 13:17:37;;;;;;;;;;;;;;;;;;5306442;26;19943;-58
2024/04/09 13:20:04;;;;;;;;;;;;;;;;;;5299626;26;19930;-54
2024/04/09 13:22:30;;;;;;;;;;;;;;;;;;5317678;26;20376;-53
2024/04/09 13:24:56;;;;;;;;;;;;;;;;;;5309408;26;19937;-55
2024/04/09 13:27:22;;;;;;;;;;;;;;;;;;5313739;26;19939;-57
2024/04/09 13:29:48;;;;;;;;;;;;;;;;;;5298495;26;20368;-52
2024/04/09 13:32:14;;;;;;;;;;;;;;;;;;5309680;26;19937;-56
2024/04/09 13:34:40;;;;;;;;;;;;;;;;;;5302591;26;20027;-57
2024/04/09 13:37:05;;;;;;;;;;;;;;;;;;5309285;26;20399;-59
2024/04/09 13:39:31;;;;;;;;;;;;;;;;;;5308188;26;19943;-55
2024/04/09 13:41:57;;;;;;;;;;;;;;;;;;5306225;26;19935;-55
2024/04/09 13:44:23;;;;;;;;;;;;;;;;;;5308757;26;19931;-57
2024/04/09 13:46:50;;;;;;;;;;;;;;;;;;5304755;26;21485;-55
2024/04/09 13:49:16;;;;;;;;;;;;;;;;;;5299879;26;20368;-58
2024/04/09 13:51:42;;;;;;;;;;;;;;;;;;5308927;26;19931;-59
2024/04/09 13:54:10;;;;;;;;;;;;;;;;;;5308879;26;20434;-57
2024/04/09 13:56:37;;;;;;;;;;;;;;;;;;5310049;26;19930;-56
2024/04/09 13:59:03;;;;;;;;;;;;;;;;;;5302103;26;19938;-57
2024/04/09 14:01:28;;;;;;;;;;;;;;;;;;5310964;26;19942;-54
2024/04/09 14:03:54;;;;;;;;;;;;;;;;;;5305415;26;20313;-57
2024/04/09 14:06:20;;;;;;;;;;;;;;;;;;5301855;26;19958;-54
2024/04/09 14:08:46;;;;;;;;;;;;;;;;;;5303733;26;19946;-55
2024/04/09 14:11:12;;;;;;;;;;;;;;;;;;5303550;26;19930;-55
2024/04/09 14:13:38;;;;;;;;;;;;;;;;;;5311385;26;20367;-59
2024/04/09 14:16:04;;;;;;;;;;;;;;;;;;5304711;26;20000;-56
2024/04/09 14:18:33;;;;;;;;;;;;;;;;;;5304070;26;19938;-56
2024/04/09 14:21:02;;;;;;;;;;;;;;;;;;5313283;26;19930;-57
2024/04/09 14:23:28;;;;;;;;;;;;;;;;;;5305029;26;20264;-56
2024/04/09 14:25:54;;;;;;;;;;;;;;;;;;5309133;26;20098;-57
2024/04/09 14:28:20;;;;;;;;;;;;;;;;;;5311830;26;19966;-58
2024/04/09 14:30:45;;;;;;;;;;;;;;;;;;5303444;26;19936;-60
2024/04/09 14:33:11;;;;;;;;;;;;;;;;;;5307656;26;20022;-58
2024/04/09 14:35:37;;;;;;;;;;;;;;;;;;5315126;26;19941;-54
2024/04/09 14:38:03;;;;;;;;;;;;;;;;;;5308648;26;19937;-57
2024/04/09 14:40:29;;;;;;;;;;;;;;;;;;5303513;26;19931;-59
2024/04/09 14:42:55;;;;;;;;;;;;;;;;;;5302169;26;19930;-59
2024/04/09 14:45:22;;;;;;;;;;;;;;;;;;5303540;26;20058;-59
2024/04/09 14:47:48;;;;;;;;;;;;;;;;;;5303467;26;19934;-59
2024/04/09 14:50:14;;;;;;;;;;;;;;;;;;5309930;26;19938;-58
2024/04/09 14:52:39;;;;;;;;;;;;;;;;;;5307446;26;20013;-58
2024/04/09 14:55:06;;;;;;;;;;;;;;;;;;5306469;26;20387;-58
2024/04/09 14:57:32;;;;;;;;;;;;;;;;;;5304213;26;19958;-58
2024/04/09 14:59:58;;;;;;;;;;;;;;;;;;5300570;26;19930;-60
2024/04/09 15:02:25;;;;;;;;;;;;;;;;;;5312269;26;19935;-57
2024/04/09 15:04:52;;;;;;;;;;;;;;;;;;5303058;26;20001;-55
2024/04/09 15:07:18;;;;;;;;;;;;;;;;;;5307967;26;19937;-57
2024/04/09 15:09:45;;;;;;;;;;;;;;;;;;5304804;26;19931;-56
2024/04/09 15:12:11;;;;;;;;;;;;;;;;;;5307279;26;20384;-56
2024/04/09 15:14:37;;;;;;;;;;;;;;;;;;5310196;26;19929;-56
2024/04/09 15:17:03;;;;;;;;;;;;;;;;;;5307748;26;19941;-59
2024/04/09 15:19:29;;;;;;;;;;;;;;;;;;5300070;26;20000;-57
2024/04/09 15:21:55;;;;;;;;;;;;;;;;;;5300504;26;19942;-52
2024/04/09 15:24:20;;;;;;;;;;;;;;;;;;5310284;26;19930;-56
2024/04/09 15:26:46;;;;;;;;;;;;;;;;;;5309509;26;19930;-55
2024/04/09 15:29:12;;;;;;;;;;;;;;;;;;5308834;26;20365;-58
2024/04/09 15:31:38;;;;;;;;;;;;;;;;;;5314623;26;19937;-55
2024/04/09 15:34:05;;;;;;;;;;;;;;;;;;5303046;26;19938;-55
2024/04/09 15:36:32;;;;;;;;;;;;;;;;;;5311900;26;19942;-52
2024/04/09 15:38:59;;;;;;;;;;;;;;;;;;5298054;26;20380;-59
2024/04/09 15:41:24;;;;;;;;;;;;;;;;;;5305029;26;20360;-57
2024/04/09 15:43:51;;;;;;;;;;;;;;;;;;5301180;26;20009;-57
2024/04/09 15:46:18;;;;;;;;;;;;;;;;;;5308653;26;19945;-57
2024/04/09 15:48:44;;;;;;;;;;;;;;;;;;5306275;26;19942;-60
2024/04/09 15:51:09;;;;;;;;;;;;;;;;;;5307819;26;19931;-59
2024/04/09 15:53:35;;;;;;;;;;;;;;;;;;5307043;26;19930;-59
2024/04/09 15:56:01;;;;;;;;;;;;;;;;;;5307690;26;19931;-60
2024/04/09 15:58:30;;;;;;;;;;;;;;;;;;5292720;26;19975;-60
2024/04/09 16:00:56;;;;;;;;;;;;;;;;;;5301345;26;19939;-59
2024/04/09 16:03:24;;;;;;;;;;;;;;;;;;5298422;26;19930;-56
2024/04/09 16:05:49;;;;;;;;;;;;;;;;;;5299651;26;19941;-58
2024/04/09 16:08:15;;;;;;;;;;;;;;;;;;5304670;26;20350;-59
2024/04/09 16:10:42;;;;;;;;;;;;;;;;;;5297868;26;19938;-58
2024/04/09 16:13:08;;;;;;;;;;;;;;;;;;5304977;26;20856;-58
2024/04/09 16:15:34;;;;;;;;;;;;;;;;;;5296030;26;19930;-57
2024/04/09 16:18:00;;;;;;;;;;;;;;;;;;5299152;26;20698;-59
2024/04/09 16:20:26;;;;;;;;;;;;;;;;;;5300126;26;19931;-60
2024/04/09 16:22:52;;;;;;;;;;;;;;;;;;5303211;26;19939;-60
2024/04/09 16:25:19;;;;;;;;;;;;;;;;;;5269642;26;19938;-60
2024/04/09 16:27:45;;;;;;;;;;;;;;;;;;5304939;26;19931;-60
2024/04/09 16:30:13;;;;;;;;;;;;;;;;;;5306080;26;19938;-59
2024/04/09 16:32:39;;;;;;;;;;;;;;;;;;5305378;26;19938;-59
2024/04/09 16:35:07;;;;;;;;;;;;;;;;;;5301793;26;19937;-59
2024/04/09 16:37:33;;;;;;;;;;;;;;;;;;5303693;26;19937;-59
2024/04/09 16:39:59;;;;;;;;;;;;;;;;;;5299634;26;19930;-57
2024/04/09 16:42:25;;;;;;;;;;;;;;;;;;5305309;26;19960;-59
2024/04/09 16:44:51;;;;;;;;;;;;;;;;;;5304452;26;20014;-55
2024/04/09 16:47:16;;;;;;;;;;;;;;;;;;5312871;26;19934;-57
2024/04/09 16:49:42;;;;;;;;;;;;;;;;;;5294463;26;19930;-58